sensor_id;sensor_type;location;lat;lon;timestamp;temperature;humidity
51035;DHT22;37062;52.546;13.230;2023-01-13T00:00:33;11.80;99.90
51035;DHT22;37062;52.546;13.230;2023-01-13T00:03:02;11.80;99.90
51035;DHT22;37062;52.546;13.230;2023-01-13T00:05:30;11.90;99.90
51035;DHT22;37062;52.546;13.230;2023-01-13T00:07:58;11.90;99.90
51035;DHT22;37062;52.546;13.230;2023-01-13T00:10:27;11.90;99.90
51035;DHT22;37062;52.546;13.230;2023-01-13T00:12:56;11.90;99.90
51035;DHT22;37062;52.546;13.230;2023-01-13T00:15:24;11.90;99.90
51035;DHT22;37062;52.546;13.230;2023-01-13T00:17:53;11.90;99.90
51035;DHT22;37062;52.546;13.230;2023-01-13T00:20:21;11.90;99.90
51035;DHT22;37062;52.546;13.230;2023-01-13T00:22:49;11.90;99.90
51035;DHT22;37062;52.546;13.230;2023-01-13T00:25:17;12.00;99.90
51035;DHT22;37062;52.546;13.230;2023-01-13T00:27:46;12.00;99.90
51035;DHT22;37062;52.546;13.230;2023-01-13T00:30:15;11.90;99.90
51035;DHT22;37062;52.546;13.230;2023-01-13T00:32:44;12.00;99.90
51035;DHT22;37062;52.546;13.230;2023-01-13T00:35:12;11.90;99.90
51035;DHT22;37062;52.546;13.230;2023-01-13T00:37:40;11.90;99.90
51035;DHT22;37062;52.546;13.230;2023-01-13T00:40:09;11.90;99.90
51035;DHT22;37062;52.546;13.230;2023-01-13T00:42:38;11.90;99.90
51035;DHT22;37062;52.546;13.230;2023-01-13T00:45:25;11.90;99.90
51035;DHT22;37062;52.546;13.230;2023-01-13T00:47:53;11.90;99.90
51035;DHT22;37062;52.546;13.230;2023-01-13T00:50:21;11.90;99.90
51035;DHT22;37062;52.546;13.230;2023-01-13T00:52:49;11.90;99.90
51035;DHT22;37062;52.546;13.230;2023-01-13T00:55:17;11.90;99.90
51035;DHT22;37062;52.546;13.230;2023-01-13T00:57:46;11.90;99.90
51035;DHT22;37062;52.546;13.230;2023-01-13T01:00:14;12.00;99.90
51035;DHT22;37062;52.546;13.230;2023-01-13T01:02:44;12.00;99.90
51035;DHT22;37062;52.546;13.230;2023-01-13T01:05:12;11.90;99.90
51035;DHT22;37062;52.546;13.230;2023-01-13T01:07:40;11.90;99.90
51035;DHT22;37062;52.546;13.230;2023-01-13T01:10:09;11.90;99.90
51035;DHT22;37062;52.546;13.230;2023-01-13T01:12:38;12.00;99.90
51035;DHT22;37062;52.546;13.230;2023-01-13T01:15:07;11.90;99.90
51035;DHT22;37062;52.546;13.230;2023-01-13T01:17:36;11.90;99.90
51035;DHT22;37062;52.546;13.230;2023-01-13T01:20:07;12.00;99.90
51035;DHT22;37062;52.546;13.230;2023-01-13T01:22:35;12.00;99.90
51035;DHT22;37062;52.546;13.230;2023-01-13T01:25:04;11.90;99.90
51035;DHT22;37062;52.546;13.230;2023-01-13T01:27:32;12.00;99.90
51035;DHT22;37062;52.546;13.230;2023-01-13T01:30:02;12.00;99.90
51035;DHT22;37062;52.546;13.230;2023-01-13T01:32:33;12.00;99.90
51035;DHT22;37062;52.546;13.230;2023-01-13T01:35:02;12.00;99.90
51035;DHT22;37062;52.546;13.230;2023-01-13T01:37:32;11.90;99.90
51035;DHT22;37062;52.546;13.230;2023-01-13T01:40:00;12.00;99.90
51035;DHT22;37062;52.546;13.230;2023-01-13T01:42:28;12.00;99.90
51035;DHT22;37062;52.546;13.230;2023-01-13T01:45:17;12.00;99.90
51035;DHT22;37062;52.546;13.230;2023-01-13T01:47:48;12.10;99.90
51035;DHT22;37062;52.546;13.230;2023-01-13T01:50:19;12.00;99.90
51035;DHT22;37062;52.546;13.230;2023-01-13T01:52:52;12.10;99.90
51035;DHT22;37062;52.546;13.230;2023-01-13T01:55:25;12.10;99.90
51035;DHT22;37062;52.546;13.230;2023-01-13T01:57:57;12.00;99.90
51035;DHT22;37062;52.546;13.230;2023-01-13T02:00:30;12.10;99.90
51035;DHT22;37062;52.546;13.230;2023-01-13T02:02:59;12.10;99.90
51035;DHT22;37062;52.546;13.230;2023-01-13T02:05:28;12.10;99.90
51035;DHT22;37062;52.546;13.230;2023-01-13T02:07:58;12.10;99.90
51035;DHT22;37062;52.546;13.230;2023-01-13T02:10:28;12.10;99.90
51035;DHT22;37062;52.546;13.230;2023-01-13T02:13:00;12.10;99.90
51035;DHT22;37062;52.546;13.230;2023-01-13T02:15:34;12.10;99.90
51035;DHT22;37062;52.546;13.230;2023-01-13T02:18:19;12.00;99.90
51035;DHT22;37062;52.546;13.230;2023-01-13T02:21:16;12.00;99.90
51035;DHT22;37062;52.546;13.230;2023-01-13T02:30:35;12.10;99.90
51035;DHT22;37062;52.546;13.230;2023-01-13T02:33:52;12.10;99.90
51035;DHT22;37062;52.546;13.230;2023-01-13T02:36:30;12.10;99.90
51035;DHT22;37062;52.546;13.230;2023-01-13T02:39:06;12.00;99.90
51035;DHT22;37062;52.546;13.230;2023-01-13T02:41:40;12.00;99.90
51035;DHT22;37062;52.546;13.230;2023-01-13T02:44:31;12.10;99.90
51035;DHT22;37062;52.546;13.230;2023-01-13T02:47:05;12.10;99.90
51035;DHT22;37062;52.546;13.230;2023-01-13T02:49:37;12.00;99.90
51035;DHT22;37062;52.546;13.230;2023-01-13T02:52:09;12.00;99.90
51035;DHT22;37062;52.546;13.230;2023-01-13T02:54:42;12.10;99.90
51035;DHT22;37062;52.546;13.230;2023-01-13T02:57:12;12.10;99.90
51035;DHT22;37062;52.546;13.230;2023-01-13T02:59:42;12.10;99.90
51035;DHT22;37062;52.546;13.230;2023-01-13T03:02:16;12.10;99.90
51035;DHT22;37062;52.546;13.230;2023-01-13T03:04:52;12.10;99.90
51035;DHT22;37062;52.546;13.230;2023-01-13T03:07:53;12.00;99.90
51035;DHT22;37062;52.546;13.230;2023-01-13T03:10:33;12.00;99.90
51035;DHT22;37062;52.546;13.230;2023-01-13T03:13:14;12.00;99.90
51035;DHT22;37062;52.546;13.230;2023-01-13T03:15:51;12.00;99.90
51035;DHT22;37062;52.546;13.230;2023-01-13T03:18:33;12.00;99.90
51035;DHT22;37062;52.546;13.230;2023-01-13T03:21:08;12.00;99.90
51035;DHT22;37062;52.546;13.230;2023-01-13T03:23:47;12.00;99.90
51035;DHT22;37062;52.546;13.230;2023-01-13T03:26:23;12.00;99.90
51035;DHT22;37062;52.546;13.230;2023-01-13T03:28:56;12.00;99.90
51035;DHT22;37062;52.546;13.230;2023-01-13T03:31:30;12.00;99.90
51035;DHT22;37062;52.546;13.230;2023-01-13T03:34:03;12.00;99.90
51035;DHT22;37062;52.546;13.230;2023-01-13T03:36:35;11.90;99.90
51035;DHT22;37062;52.546;13.230;2023-01-13T03:39:08;12.00;99.90
51035;DHT22;37062;52.546;13.230;2023-01-13T03:41:43;12.00;99.90
51035;DHT22;37062;52.546;13.230;2023-01-13T03:44:15;11.90;99.90
51035;DHT22;37062;52.546;13.230;2023-01-13T03:47:00;11.90;99.90
51035;DHT22;37062;52.546;13.230;2023-01-13T03:49:36;12.00;99.90
51035;DHT22;37062;52.546;13.230;2023-01-13T03:52:09;12.00;99.90
51035;DHT22;37062;52.546;13.230;2023-01-13T03:54:44;11.90;99.90
51035;DHT22;37062;52.546;13.230;2023-01-13T03:57:15;12.00;99.90
51035;DHT22;37062;52.546;13.230;2023-01-13T03:59:47;12.00;99.90
51035;DHT22;37062;52.546;13.230;2023-01-13T04:02:22;12.00;99.90
51035;DHT22;37062;52.546;13.230;2023-01-13T04:04:55;12.00;99.90
51035;DHT22;37062;52.546;13.230;2023-01-13T04:07:32;12.10;99.90
51035;DHT22;37062;52.546;13.230;2023-01-13T04:10:06;12.10;99.90
51035;DHT22;37062;52.546;13.230;2023-01-13T04:12:39;12.10;99.90
51035;DHT22;37062;52.546;13.230;2023-01-13T04:15:30;12.10;99.90
51035;DHT22;37062;52.546;13.230;2023-01-13T04:18:14;12.10;99.90
51035;DHT22;37062;52.546;13.230;2023-01-13T04:20:46;12.10;99.90
51035;DHT22;37062;52.546;13.230;2023-01-13T04:23:15;12.00;99.90
51035;DHT22;37062;52.546;13.230;2023-01-13T04:25:44;12.00;99.90
51035;DHT22;37062;52.546;13.230;2023-01-13T04:28:13;12.00;99.90
51035;DHT22;37062;52.546;13.230;2023-01-13T04:30:42;12.00;99.90
51035;DHT22;37062;52.546;13.230;2023-01-13T04:33:11;12.00;99.90
51035;DHT22;37062;52.546;13.230;2023-01-13T04:35:40;12.00;99.90
51035;DHT22;37062;52.546;13.230;2023-01-13T04:38:11;12.00;99.90
51035;DHT22;37062;52.546;13.230;2023-01-13T04:40:41;11.90;99.90
51035;DHT22;37062;52.546;13.230;2023-01-13T04:43:09;11.90;99.90
51035;DHT22;37062;52.546;13.230;2023-01-13T04:45:37;11.80;99.90
51035;DHT22;37062;52.546;13.230;2023-01-13T04:48:05;11.80;99.90
51035;DHT22;37062;52.546;13.230;2023-01-13T04:50:34;11.80;99.90
51035;DHT22;37062;52.546;13.230;2023-01-13T04:53:02;11.70;99.90
51035;DHT22;37062;52.546;13.230;2023-01-13T04:55:32;11.70;99.90
51035;DHT22;37062;52.546;13.230;2023-01-13T04:58:02;11.70;99.90
51035;DHT22;37062;52.546;13.230;2023-01-13T05:00:32;11.80;99.90
51035;DHT22;37062;52.546;13.230;2023-01-13T05:03:01;11.80;99.90
51035;DHT22;37062;52.546;13.230;2023-01-13T05:05:29;11.80;99.90
51035;DHT22;37062;52.546;13.230;2023-01-13T05:07:58;11.80;99.90
51035;DHT22;37062;52.546;13.230;2023-01-13T05:10:26;11.90;99.90
51035;DHT22;37062;52.546;13.230;2023-01-13T05:12:56;11.90;99.90
51035;DHT22;37062;52.546;13.230;2023-01-13T05:15:42;12.00;99.90
51035;DHT22;37062;52.546;13.230;2023-01-13T05:18:28;12.00;99.90
51035;DHT22;37062;52.546;13.230;2023-01-13T05:20:57;12.10;99.90
51035;DHT22;37062;52.546;13.230;2023-01-13T05:23:26;12.20;99.90
51035;DHT22;37062;52.546;13.230;2023-01-13T05:26:12;12.20;99.90
51035;DHT22;37062;52.546;13.230;2023-01-13T05:28:41;12.30;99.90
51035;DHT22;37062;52.546;13.230;2023-01-13T05:31:09;12.40;99.90
51035;DHT22;37062;52.546;13.230;2023-01-13T05:33:40;12.50;99.90
51035;DHT22;37062;52.546;13.230;2023-01-13T05:36:09;12.50;99.90
51035;DHT22;37062;52.546;13.230;2023-01-13T05:38:37;12.50;99.90
51035;DHT22;37062;52.546;13.230;2023-01-13T05:41:05;12.50;99.90
51035;DHT22;37062;52.546;13.230;2023-01-13T05:43:52;12.50;99.90
51035;DHT22;37062;52.546;13.230;2023-01-13T05:46:20;12.60;99.90
51035;DHT22;37062;52.546;13.230;2023-01-13T05:48:48;12.60;99.90
51035;DHT22;37062;52.546;13.230;2023-01-13T05:51:16;12.50;99.90
51035;DHT22;37062;52.546;13.230;2023-01-13T05:53:45;12.50;99.90
51035;DHT22;37062;52.546;13.230;2023-01-13T05:56:13;12.40;99.90
51035;DHT22;37062;52.546;13.230;2023-01-13T05:58:43;12.50;99.90
51035;DHT22;37062;52.546;13.230;2023-01-13T06:01:15;12.40;99.90
51035;DHT22;37062;52.546;13.230;2023-01-13T06:03:43;12.40;99.90
51035;DHT22;37062;52.546;13.230;2023-01-13T06:06:11;12.30;99.90
51035;DHT22;37062;52.546;13.230;2023-01-13T06:08:39;12.20;99.90
51035;DHT22;37062;52.546;13.230;2023-01-13T06:11:08;12.10;99.90
51035;DHT22;37062;52.546;13.230;2023-01-13T06:13:36;12.10;99.90
51035;DHT22;37062;52.546;13.230;2023-01-13T06:16:05;12.00;99.90
51035;DHT22;37062;52.546;13.230;2023-01-13T06:18:34;12.10;99.90
51035;DHT22;37062;52.546;13.230;2023-01-13T06:21:02;12.00;99.90
51035;DHT22;37062;52.546;13.230;2023-01-13T06:23:31;12.10;99.90
51035;DHT22;37062;52.546;13.230;2023-01-13T06:26:04;12.10;99.90
51035;DHT22;37062;52.546;13.230;2023-01-13T06:28:35;12.10;99.90
51035;DHT22;37062;52.546;13.230;2023-01-13T06:31:05;12.10;99.90
51035;DHT22;37062;52.546;13.230;2023-01-13T06:33:38;12.10;99.90
51035;DHT22;37062;52.546;13.230;2023-01-13T06:36:12;11.90;99.90
51035;DHT22;37062;52.546;13.230;2023-01-13T06:38:45;11.90;99.90
51035;DHT22;37062;52.546;13.230;2023-01-13T06:41:14;11.90;99.90
51035;DHT22;37062;52.546;13.230;2023-01-13T06:43:43;11.90;99.90
51035;DHT22;37062;52.546;13.230;2023-01-13T06:46:10;12.00;99.90
51035;DHT22;37062;52.546;13.230;2023-01-13T06:48:40;12.00;99.90
51035;DHT22;37062;52.546;13.230;2023-01-13T06:51:08;12.10;99.90
51035;DHT22;37062;52.546;13.230;2023-01-13T06:53:36;12.10;99.90
51035;DHT22;37062;52.546;13.230;2023-01-13T06:56:05;12.10;99.90
51035;DHT22;37062;52.546;13.230;2023-01-13T06:58:33;12.10;99.90
51035;DHT22;37062;52.546;13.230;2023-01-13T07:01:03;12.10;99.90
51035;DHT22;37062;52.546;13.230;2023-01-13T07:03:32;12.10;99.90
51035;DHT22;37062;52.546;13.230;2023-01-13T07:06:01;12.20;99.90
51035;DHT22;37062;52.546;13.230;2023-01-13T07:08:30;12.30;99.90
51035;DHT22;37062;52.546;13.230;2023-01-13T07:11:00;12.30;99.90
51035;DHT22;37062;52.546;13.230;2023-01-13T07:13:28;12.30;99.90
51035;DHT22;37062;52.546;13.230;2023-01-13T07:16:14;12.40;99.90
51035;DHT22;37062;52.546;13.230;2023-01-13T07:18:42;12.40;99.90
51035;DHT22;37062;52.546;13.230;2023-01-13T07:21:11;12.30;99.90
51035;DHT22;37062;52.546;13.230;2023-01-13T07:23:45;12.30;99.90
51035;DHT22;37062;52.546;13.230;2023-01-13T07:26:14;12.30;99.90
51035;DHT22;37062;52.546;13.230;2023-01-13T07:28:42;12.30;99.90
51035;DHT22;37062;52.546;13.230;2023-01-13T07:31:15;12.40;99.90
51035;DHT22;37062;52.546;13.230;2023-01-13T07:33:44;12.40;99.90
51035;DHT22;37062;52.546;13.230;2023-01-13T07:36:14;12.40;99.90
51035;DHT22;37062;52.546;13.230;2023-01-13T07:38:42;12.40;99.90
51035;DHT22;37062;52.546;13.230;2023-01-13T07:41:11;12.40;99.90
51035;DHT22;37062;52.546;13.230;2023-01-13T07:43:57;12.40;99.90
51035;DHT22;37062;52.546;13.230;2023-01-13T07:46:26;12.50;99.90
51035;DHT22;37062;52.546;13.230;2023-01-13T07:48:54;12.40;99.90
51035;DHT22;37062;52.546;13.230;2023-01-13T07:51:24;12.40;99.90
51035;DHT22;37062;52.546;13.230;2023-01-13T07:53:52;12.40;99.90
51035;DHT22;37062;52.546;13.230;2023-01-13T07:56:20;12.40;99.90
51035;DHT22;37062;52.546;13.230;2023-01-13T07:58:49;12.40;99.90
51035;DHT22;37062;52.546;13.230;2023-01-13T08:01:19;12.40;99.90
51035;DHT22;37062;52.546;13.230;2023-01-13T08:03:47;12.30;99.90
51035;DHT22;37062;52.546;13.230;2023-01-13T08:06:15;12.30;99.90
51035;DHT22;37062;52.546;13.230;2023-01-13T08:08:45;12.40;99.90
51035;DHT22;37062;52.546;13.230;2023-01-13T08:11:13;12.40;99.90
51035;DHT22;37062;52.546;13.230;2023-01-13T08:13:41;12.40;99.90
51035;DHT22;37062;52.546;13.230;2023-01-13T08:16:11;12.50;99.90
51035;DHT22;37062;52.546;13.230;2023-01-13T08:18:40;12.50;99.90
51035;DHT22;37062;52.546;13.230;2023-01-13T08:21:10;12.50;99.90
51035;DHT22;37062;52.546;13.230;2023-01-13T08:23:41;12.50;99.90
51035;DHT22;37062;52.546;13.230;2023-01-13T08:26:13;12.50;99.90
51035;DHT22;37062;52.546;13.230;2023-01-13T08:28:42;12.50;99.90
51035;DHT22;37062;52.546;13.230;2023-01-13T08:31:12;12.60;99.90
51035;DHT22;37062;52.546;13.230;2023-01-13T08:33:42;12.60;99.90
51035;DHT22;37062;52.546;13.230;2023-01-13T08:36:11;12.60;99.90
51035;DHT22;37062;52.546;13.230;2023-01-13T08:38:40;12.60;99.90
51035;DHT22;37062;52.546;13.230;2023-01-13T08:41:09;12.50;99.90
51035;DHT22;37062;52.546;13.230;2023-01-13T08:43:39;12.50;99.90
51035;DHT22;37062;52.546;13.230;2023-01-13T08:46:07;12.50;99.90
51035;DHT22;37062;52.546;13.230;2023-01-13T08:48:35;12.50;99.90
51035;DHT22;37062;52.546;13.230;2023-01-13T08:51:06;12.50;99.90
51035;DHT22;37062;52.546;13.230;2023-01-13T08:53:35;12.40;99.90
51035;DHT22;37062;52.546;13.230;2023-01-13T08:56:06;12.30;99.90
51035;DHT22;37062;52.546;13.230;2023-01-13T08:58:36;12.30;99.90
51035;DHT22;37062;52.546;13.230;2023-01-13T09:01:09;12.30;99.90
51035;DHT22;37062;52.546;13.230;2023-01-13T09:03:38;12.30;99.90
51035;DHT22;37062;52.546;13.230;2023-01-13T09:06:07;12.20;99.90
51035;DHT22;37062;52.546;13.230;2023-01-13T09:08:35;12.30;99.90
51035;DHT22;37062;52.546;13.230;2023-01-13T09:11:03;12.20;99.90
51035;DHT22;37062;52.546;13.230;2023-01-13T09:13:52;12.30;99.90
51035;DHT22;37062;52.546;13.230;2023-01-13T09:16:20;12.30;99.90
51035;DHT22;37062;52.546;13.230;2023-01-13T09:18:48;12.30;99.90
51035;DHT22;37062;52.546;13.230;2023-01-13T09:21:17;12.40;99.90
51035;DHT22;37062;52.546;13.230;2023-01-13T09:23:46;12.40;99.90
51035;DHT22;37062;52.546;13.230;2023-01-13T09:26:18;12.40;99.90
51035;DHT22;37062;52.546;13.230;2023-01-13T09:28:46;12.40;99.90
51035;DHT22;37062;52.546;13.230;2023-01-13T09:31:15;12.40;99.90
51035;DHT22;37062;52.546;13.230;2023-01-13T09:33:44;12.40;99.90
51035;DHT22;37062;52.546;13.230;2023-01-13T09:36:29;12.40;99.90
51035;DHT22;37062;52.546;13.230;2023-01-13T09:39:00;12.40;99.90
51035;DHT22;37062;52.546;13.230;2023-01-13T09:41:30;12.60;99.90
51035;DHT22;37062;52.546;13.230;2023-01-13T09:44:19;12.60;99.90
51035;DHT22;37062;52.546;13.230;2023-01-13T09:46:51;12.60;99.90
51035;DHT22;37062;52.546;13.230;2023-01-13T09:49:24;12.60;99.90
51035;DHT22;37062;52.546;13.230;2023-01-13T09:51:58;12.60;99.90
51035;DHT22;37062;52.546;13.230;2023-01-13T09:54:30;12.70;99.90
51035;DHT22;37062;52.546;13.230;2023-01-13T09:57:00;12.70;99.90
51035;DHT22;37062;52.546;13.230;2023-01-13T09:59:31;12.80;99.90
51035;DHT22;37062;52.546;13.230;2023-01-13T10:05:04;12.80;99.90
51035;DHT22;37062;52.546;13.230;2023-01-13T10:07:36;12.80;99.90
51035;DHT22;37062;52.546;13.230;2023-01-13T10:10:13;12.70;99.90
51035;DHT22;37062;52.546;13.230;2023-01-13T10:12:44;12.70;99.90
51035;DHT22;37062;52.546;13.230;2023-01-13T10:15:32;12.60;99.90
51035;DHT22;37062;52.546;13.230;2023-01-13T10:18:07;12.60;99.90
51035;DHT22;37062;52.546;13.230;2023-01-13T10:20:50;12.60;99.90
51035;DHT22;37062;52.546;13.230;2023-01-13T10:23:38;12.60;99.90
51035;DHT22;37062;52.546;13.230;2023-01-13T10:26:35;12.60;99.90
51035;DHT22;37062;52.546;13.230;2023-01-13T10:29:18;12.50;99.90
51035;DHT22;37062;52.546;13.230;2023-01-13T10:31:47;12.40;99.90
51035;DHT22;37062;52.546;13.230;2023-01-13T10:34:15;12.40;99.90
51035;DHT22;37062;52.546;13.230;2023-01-13T10:37:01;12.40;99.90
51035;DHT22;37062;52.546;13.230;2023-01-13T10:39:39;12.40;99.90
51035;DHT22;37062;52.546;13.230;2023-01-13T10:42:13;12.40;99.90
51035;DHT22;37062;52.546;13.230;2023-01-13T10:44:50;12.50;99.90
51035;DHT22;37062;52.546;13.230;2023-01-13T10:47:24;12.50;99.90
51035;DHT22;37062;52.546;13.230;2023-01-13T10:50:20;12.50;99.90
51035;DHT22;37062;52.546;13.230;2023-01-13T10:52:59;12.50;99.90
51035;DHT22;37062;52.546;13.230;2023-01-13T10:55:29;12.50;99.90
51035;DHT22;37062;52.546;13.230;2023-01-13T10:58:11;12.50;99.90
51035;DHT22;37062;52.546;13.230;2023-01-13T11:00:41;12.60;99.90
51035;DHT22;37062;52.546;13.230;2023-01-13T11:03:23;12.60;99.90
51035;DHT22;37062;52.546;13.230;2023-01-13T11:05:53;12.60;99.90
51035;DHT22;37062;52.546;13.230;2023-01-13T11:08:25;12.60;99.90
51035;DHT22;37062;52.546;13.230;2023-01-13T11:10:55;12.60;99.90
51035;DHT22;37062;52.546;13.230;2023-01-13T11:13:29;12.60;99.90
51035;DHT22;37062;52.546;13.230;2023-01-13T11:16:02;12.60;99.90
51035;DHT22;37062;52.546;13.230;2023-01-13T11:18:42;12.60;99.90
51035;DHT22;37062;52.546;13.230;2023-01-13T11:21:31;12.60;99.90
51035;DHT22;37062;52.546;13.230;2023-01-13T11:24:09;12.50;99.90
51035;DHT22;37062;52.546;13.230;2023-01-13T11:26:43;12.40;99.90
51035;DHT22;37062;52.546;13.230;2023-01-13T11:29:17;12.40;99.90
51035;DHT22;37062;52.546;13.230;2023-01-13T11:31:51;12.40;99.90
51035;DHT22;37062;52.546;13.230;2023-01-13T11:34:27;12.40;99.90
51035;DHT22;37062;52.546;13.230;2023-01-13T11:36:59;12.40;99.90
51035;DHT22;37062;52.546;13.230;2023-01-13T11:39:41;12.40;99.90
51035;DHT22;37062;52.546;13.230;2023-01-13T11:42:17;12.40;99.90
51035;DHT22;37062;52.546;13.230;2023-01-13T11:44:53;12.40;99.90
51035;DHT22;37062;52.546;13.230;2023-01-13T11:47:26;12.40;99.90
51035;DHT22;37062;52.546;13.230;2023-01-13T11:49:55;12.30;99.90
51035;DHT22;37062;52.546;13.230;2023-01-13T11:52:29;12.30;99.90
51035;DHT22;37062;52.546;13.230;2023-01-13T11:55:17;12.40;99.90
51035;DHT22;37062;52.546;13.230;2023-01-13T11:57:58;12.40;99.90
51035;DHT22;37062;52.546;13.230;2023-01-13T12:03:32;12.40;99.90
51035;DHT22;37062;52.546;13.230;2023-01-13T12:06:17;12.40;99.90
51035;DHT22;37062;52.546;13.230;2023-01-13T12:09:20;12.50;99.90
51035;DHT22;37062;52.546;13.230;2023-01-13T12:12:06;12.40;99.90
51035;DHT22;37062;52.546;13.230;2023-01-13T12:18:14;12.40;99.90
51035;DHT22;37062;52.546;13.230;2023-01-13T12:20:52;12.40;99.90
51035;DHT22;37062;52.546;13.230;2023-01-13T12:23:29;12.30;99.90
51035;DHT22;37062;52.546;13.230;2023-01-13T12:26:05;12.40;99.90
51035;DHT22;37062;52.546;13.230;2023-01-13T12:28:42;12.40;99.90
51035;DHT22;37062;52.546;13.230;2023-01-13T12:31:12;12.40;99.90
51035;DHT22;37062;52.546;13.230;2023-01-13T12:33:55;12.50;99.90
51035;DHT22;37062;52.546;13.230;2023-01-13T12:36:30;12.50;99.90
51035;DHT22;37062;52.546;13.230;2023-01-13T12:39:07;12.60;99.90
51035;DHT22;37062;52.546;13.230;2023-01-13T12:41:43;12.60;99.90
51035;DHT22;37062;52.546;13.230;2023-01-13T12:44:27;12.70;99.90
51035;DHT22;37062;52.546;13.230;2023-01-13T12:46:58;12.70;99.90
51035;DHT22;37062;52.546;13.230;2023-01-13T12:49:31;12.70;99.90
51035;DHT22;37062;52.546;13.230;2023-01-13T12:52:12;12.70;99.90
51035;DHT22;37062;52.546;13.230;2023-01-13T12:55:17;12.60;99.90
51035;DHT22;37062;52.546;13.230;2023-01-13T12:58:14;12.60;99.90
51035;DHT22;37062;52.546;13.230;2023-01-13T13:00:57;12.60;99.90
51035;DHT22;37062;52.546;13.230;2023-01-13T13:03:29;12.60;99.90
51035;DHT22;37062;52.546;13.230;2023-01-13T13:06:06;12.60;99.90
51035;DHT22;37062;52.546;13.230;2023-01-13T13:08:51;12.50;99.90
51035;DHT22;37062;52.546;13.230;2023-01-13T13:11:42;12.50;99.90
51035;DHT22;37062;52.546;13.230;2023-01-13T13:15:03;12.60;99.90
51035;DHT22;37062;52.546;13.230;2023-01-13T13:17:59;12.70;99.90
51035;DHT22;37062;52.546;13.230;2023-01-13T13:20:59;12.70;99.90
51035;DHT22;37062;52.546;13.230;2023-01-13T13:24:01;12.70;99.90
51035;DHT22;37062;52.546;13.230;2023-01-13T13:26:36;12.70;99.90
51035;DHT22;37062;52.546;13.230;2023-01-13T13:29:27;12.70;99.90
51035;DHT22;37062;52.546;13.230;2023-01-13T13:32:18;12.70;99.90
51035;DHT22;37062;52.546;13.230;2023-01-13T13:34:56;12.70;99.90
51035;DHT22;37062;52.546;13.230;2023-01-13T13:37:36;12.60;99.90
51035;DHT22;37062;52.546;13.230;2023-01-13T13:40:23;12.60;99.90
51035;DHT22;37062;52.546;13.230;2023-01-13T13:43:11;12.50;99.90
51035;DHT22;37062;52.546;13.230;2023-01-13T13:45:57;12.50;99.90
51035;DHT22;37062;52.546;13.230;2023-01-13T13:48:57;12.50;99.90
51035;DHT22;37062;52.546;13.230;2023-01-13T13:51:30;12.50;99.90
51035;DHT22;37062;52.546;13.230;2023-01-13T13:54:08;12.50;99.90
51035;DHT22;37062;52.546;13.230;2023-01-13T13:56:40;12.50;99.90
51035;DHT22;37062;52.546;13.230;2023-01-13T13:59:10;12.40;99.90
51035;DHT22;37062;52.546;13.230;2023-01-13T14:01:41;12.30;99.90
51035;DHT22;37062;52.546;13.230;2023-01-13T14:04:13;12.30;99.90
51035;DHT22;37062;52.546;13.230;2023-01-13T14:06:51;12.30;99.90
51035;DHT22;37062;52.546;13.230;2023-01-13T14:09:21;12.40;99.90
51035;DHT22;37062;52.546;13.230;2023-01-13T14:11:57;12.40;99.90
51035;DHT22;37062;52.546;13.230;2023-01-13T14:14:27;12.40;99.90
51035;DHT22;37062;52.546;13.230;2023-01-13T14:16:55;12.40;99.90
51035;DHT22;37062;52.546;13.230;2023-01-13T14:19:28;12.30;99.90
51035;DHT22;37062;52.546;13.230;2023-01-13T14:22:00;12.30;99.90
51035;DHT22;37062;52.546;13.230;2023-01-13T14:24:29;12.30;99.90
51035;DHT22;37062;52.546;13.230;2023-01-13T14:27:08;12.40;99.90
51035;DHT22;37062;52.546;13.230;2023-01-13T14:29:37;12.30;99.90
51035;DHT22;37062;52.546;13.230;2023-01-13T14:32:06;12.30;99.90
51035;DHT22;37062;52.546;13.230;2023-01-13T14:34:34;12.30;99.90
51035;DHT22;37062;52.546;13.230;2023-01-13T14:37:24;12.30;99.90
51035;DHT22;37062;52.546;13.230;2023-01-13T14:39:53;12.30;99.90
51035;DHT22;37062;52.546;13.230;2023-01-13T14:42:21;12.30;99.90
51035;DHT22;37062;52.546;13.230;2023-01-13T14:44:50;12.30;99.90
51035;DHT22;37062;52.546;13.230;2023-01-13T14:47:22;12.30;99.90
51035;DHT22;37062;52.546;13.230;2023-01-13T14:49:54;12.30;99.90
51035;DHT22;37062;52.546;13.230;2023-01-13T14:52:27;12.30;99.90
51035;DHT22;37062;52.546;13.230;2023-01-13T14:55:26;12.40;99.90
51035;DHT22;37062;52.546;13.230;2023-01-13T14:58:16;12.40;99.90
51035;DHT22;37062;52.546;13.230;2023-01-13T15:00:44;12.40;99.90
51035;DHT22;37062;52.546;13.230;2023-01-13T15:03:14;12.40;99.90
51035;DHT22;37062;52.546;13.230;2023-01-13T15:05:44;12.40;99.90
51035;DHT22;37062;52.546;13.230;2023-01-13T15:08:31;12.30;99.90
51035;DHT22;37062;52.546;13.230;2023-01-13T15:11:03;12.20;99.90
51035;DHT22;37062;52.546;13.230;2023-01-13T15:13:38;12.20;99.90
51035;DHT22;37062;52.546;13.230;2023-01-13T15:16:15;12.20;99.90
51035;DHT22;37062;52.546;13.230;2023-01-13T15:18:44;12.20;99.90
51035;DHT22;37062;52.546;13.230;2023-01-13T15:21:12;12.20;99.90
51035;DHT22;37062;52.546;13.230;2023-01-13T15:23:43;12.10;99.90
51035;DHT22;37062;52.546;13.230;2023-01-13T15:26:22;12.10;99.90
51035;DHT22;37062;52.546;13.230;2023-01-13T15:28:52;12.00;99.90
51035;DHT22;37062;52.546;13.230;2023-01-13T15:31:22;12.00;99.90
51035;DHT22;37062;52.546;13.230;2023-01-13T15:33:51;12.00;99.90
51035;DHT22;37062;52.546;13.230;2023-01-13T15:36:22;12.00;99.90
51035;DHT22;37062;52.546;13.230;2023-01-13T15:38:56;12.00;99.90
51035;DHT22;37062;52.546;13.230;2023-01-13T15:41:25;12.00;99.90
51035;DHT22;37062;52.546;13.230;2023-01-13T15:44:12;12.00;99.90
51035;DHT22;37062;52.546;13.230;2023-01-13T15:47:00;11.90;99.90
51035;DHT22;37062;52.546;13.230;2023-01-13T15:49:31;11.90;99.90
51035;DHT22;37062;52.546;13.230;2023-01-13T15:52:02;11.90;99.90
51035;DHT22;37062;52.546;13.230;2023-01-13T15:54:32;11.90;99.90
51035;DHT22;37062;52.546;13.230;2023-01-13T16:01:13;11.90;99.90
51035;DHT22;37062;52.546;13.230;2023-01-13T16:03:41;11.80;99.90
51035;DHT22;37062;52.546;13.230;2023-01-13T16:06:14;11.80;99.90
51035;DHT22;37062;52.546;13.230;2023-01-13T16:08:44;11.70;99.90
51035;DHT22;37062;52.546;13.230;2023-01-13T16:11:13;11.70;99.90
51035;DHT22;37062;52.546;13.230;2023-01-13T16:13:41;11.70;99.90
51035;DHT22;37062;52.546;13.230;2023-01-13T16:16:17;11.70;99.90